sensor_id;sensor_type;location;lat;lon;timestamp;P1;durP1;ratioP1;P2;durP2;ratioP2
34984;SDS011;21190;58.750;17.004;2023-04-29T00:00:48;7.55;;;2.28;;
34984;SDS011;21190;58.750;17.004;2023-04-29T00:03:14;4.05;;;1.63;;
34984;SDS011;21190;58.750;17.004;2023-04-29T00:05:43;5.32;;;1.48;;
34984;SDS011;21190;58.750;17.004;2023-04-29T00:08:10;3.88;;;1.33;;
34984;SDS011;21190;58.750;17.004;2023-04-29T00:10:37;6.07;;;1.77;;
34984;SDS011;21190;58.750;17.004;2023-04-29T00:13:04;3.75;;;1.55;;
34984;SDS011;21190;58.750;17.004;2023-04-29T00:15:32;9.10;;;2.28;;
34984;SDS011;21190;58.750;17.004;2023-04-29T00:17:59;7.95;;;1.98;;
34984;SDS011;21190;58.750;17.004;2023-04-29T00:20:26;4.03;;;1.83;;
34984;SDS011;21190;58.750;17.004;2023-04-29T00:22:53;6.95;;;1.58;;
34984;SDS011;21190;58.750;17.004;2023-04-29T00:25:20;4.50;;;1.92;;
34984;SDS011;21190;58.750;17.004;2023-04-29T00:27:47;9.77;;;2.33;;
34984;SDS011;21190;58.750;17.004;2023-04-29T00:30:14;9.40;;;2.15;;
34984;SDS011;21190;58.750;17.004;2023-04-29T00:32:41;8.13;;;2.08;;
34984;SDS011;21190;58.750;17.004;2023-04-29T00:35:10;4.75;;;1.60;;
34984;SDS011;21190;58.750;17.004;2023-04-29T00:37:36;9.20;;;1.60;;
34984;SDS011;21190;58.750;17.004;2023-04-29T00:40:04;9.10;;;1.65;;
34984;SDS011;21190;58.750;17.004;2023-04-29T00:42:32;6.22;;;1.38;;
34984;SDS011;21190;58.750;17.004;2023-04-29T00:44:59;10.35;;;2.10;;
34984;SDS011;21190;58.750;17.004;2023-04-29T00:47:26;8.88;;;1.55;;
34984;SDS011;21190;58.750;17.004;2023-04-29T00:49:53;7.65;;;1.73;;
34984;SDS011;21190;58.750;17.004;2023-04-29T00:52:20;5.50;;;1.95;;
34984;SDS011;21190;58.750;17.004;2023-04-29T00:54:48;4.93;;;1.90;;
34984;SDS011;21190;58.750;17.004;2023-04-29T00:57:16;3.90;;;1.65;;
34984;SDS011;21190;58.750;17.004;2023-04-29T00:59:44;6.63;;;1.80;;
34984;SDS011;21190;58.750;17.004;2023-04-29T01:02:11;5.30;;;1.63;;
34984;SDS011;21190;58.750;17.004;2023-04-29T01:04:39;5.18;;;1.38;;
34984;SDS011;21190;58.750;17.004;2023-04-29T01:07:29;4.35;;;1.35;;
34984;SDS011;21190;58.750;17.004;2023-04-29T01:10:21;3.03;;;1.30;;
34984;SDS011;21190;58.750;17.004;2023-04-29T01:16:01;2.05;;;1.38;;
34984;SDS011;21190;58.750;17.004;2023-04-29T01:18:36;3.03;;;1.67;;
34984;SDS011;21190;58.750;17.004;2023-04-29T01:21:07;3.53;;;1.08;;
34984;SDS011;21190;58.750;17.004;2023-04-29T01:23:34;3.47;;;1.40;;
34984;SDS011;21190;58.750;17.004;2023-04-29T01:26:01;3.35;;;1.20;;
34984;SDS011;21190;58.750;17.004;2023-04-29T01:28:49;1.63;;;1.20;;
34984;SDS011;21190;58.750;17.004;2023-04-29T01:45:06;5.03;;;1.55;;
34984;SDS011;21190;58.750;17.004;2023-04-29T01:47:36;2.53;;;1.35;;
34984;SDS011;21190;58.750;17.004;2023-04-29T01:50:04;2.72;;;1.42;;
34984;SDS011;21190;58.750;17.004;2023-04-29T01:52:31;5.70;;;1.20;;
34984;SDS011;21190;58.750;17.004;2023-04-29T01:54:58;6.68;;;1.00;;
34984;SDS011;21190;58.750;17.004;2023-04-29T01:57:25;1.63;;;1.00;;
34984;SDS011;21190;58.750;17.004;2023-04-29T01:59:52;3.97;;;1.30;;
34984;SDS011;21190;58.750;17.004;2023-04-29T02:02:19;2.88;;;1.40;;
34984;SDS011;21190;58.750;17.004;2023-04-29T02:04:48;2.70;;;1.33;;
34984;SDS011;21190;58.750;17.004;2023-04-29T02:07:16;3.88;;;1.67;;
34984;SDS011;21190;58.750;17.004;2023-04-29T02:09:43;3.88;;;1.60;;
34984;SDS011;21190;58.750;17.004;2023-04-29T02:12:09;4.53;;;1.42;;
34984;SDS011;21190;58.750;17.004;2023-04-29T02:14:36;1.63;;;1.10;;
34984;SDS011;21190;58.750;17.004;2023-04-29T02:17:04;4.43;;;1.08;;
34984;SDS011;21190;58.750;17.004;2023-04-29T02:19:30;1.77;;;1.10;;
34984;SDS011;21190;58.750;17.004;2023-04-29T02:21:57;4.75;;;1.48;;
34984;SDS011;21190;58.750;17.004;2023-04-29T02:24:24;6.95;;;1.52;;
34984;SDS011;21190;58.750;17.004;2023-04-29T02:26:51;2.67;;;1.60;;
34984;SDS011;21190;58.750;17.004;2023-04-29T02:29:18;1.98;;;1.35;;
34984;SDS011;21190;58.750;17.004;2023-04-29T02:31:45;6.10;;;1.42;;
34984;SDS011;21190;58.750;17.004;2023-04-29T02:34:12;4.18;;;1.30;;
34984;SDS011;21190;58.750;17.004;2023-04-29T02:36:39;4.28;;;1.85;;
34984;SDS011;21190;58.750;17.004;2023-04-29T02:39:06;3.65;;;1.55;;
34984;SDS011;21190;58.750;17.004;2023-04-29T02:41:33;2.92;;;1.30;;
34984;SDS011;21190;58.750;17.004;2023-04-29T02:44:00;6.18;;;1.30;;
34984;SDS011;21190;58.750;17.004;2023-04-29T02:46:27;3.90;;;1.88;;
34984;SDS011;21190;58.750;17.004;2023-04-29T02:48:54;6.82;;;1.73;;
34984;SDS011;21190;58.750;17.004;2023-04-29T02:51:21;6.35;;;1.58;;
34984;SDS011;21190;58.750;17.004;2023-04-29T02:53:48;2.35;;;1.38;;
34984;SDS011;21190;58.750;17.004;2023-04-29T02:56:15;4.93;;;1.42;;
34984;SDS011;21190;58.750;17.004;2023-04-29T02:58:41;3.63;;;1.50;;
34984;SDS011;21190;58.750;17.004;2023-04-29T03:01:08;5.20;;;1.33;;
34984;SDS011;21190;58.750;17.004;2023-04-29T03:03:36;3.70;;;2.00;;
34984;SDS011;21190;58.750;17.004;2023-04-29T03:06:03;4.38;;;1.40;;
34984;SDS011;21190;58.750;17.004;2023-04-29T03:08:30;4.18;;;1.20;;
34984;SDS011;21190;58.750;17.004;2023-04-29T03:10:57;4.28;;;1.55;;
34984;SDS011;21190;58.750;17.004;2023-04-29T03:13:23;4.82;;;1.60;;
34984;SDS011;21190;58.750;17.004;2023-04-29T03:15:51;4.35;;;1.40;;
34984;SDS011;21190;58.750;17.004;2023-04-29T03:18:17;6.05;;;2.17;;
34984;SDS011;21190;58.750;17.004;2023-04-29T03:20:44;5.00;;;1.65;;
34984;SDS011;21190;58.750;17.004;2023-04-29T03:23:11;4.93;;;1.60;;
34984;SDS011;21190;58.750;17.004;2023-04-29T03:25:38;6.72;;;1.63;;
34984;SDS011;21190;58.750;17.004;2023-04-29T03:28:06;2.70;;;1.52;;
34984;SDS011;21190;58.750;17.004;2023-04-29T03:30:33;5.72;;;1.70;;
34984;SDS011;21190;58.750;17.004;2023-04-29T03:33:00;6.43;;;1.88;;
34984;SDS011;21190;58.750;17.004;2023-04-29T03:35:27;7.47;;;1.77;;
34984;SDS011;21190;58.750;17.004;2023-04-29T03:37:54;7.15;;;1.50;;
34984;SDS011;21190;58.750;17.004;2023-04-29T03:40:21;2.50;;;1.20;;
34984;SDS011;21190;58.750;17.004;2023-04-29T03:42:48;3.08;;;1.50;;
34984;SDS011;21190;58.750;17.004;2023-04-29T03:45:14;4.32;;;1.73;;
34984;SDS011;21190;58.750;17.004;2023-04-29T03:47:41;6.32;;;1.65;;
34984;SDS011;21190;58.750;17.004;2023-04-29T03:50:09;26.48;;;2.72;;
34984;SDS011;21190;58.750;17.004;2023-04-29T03:52:36;10.25;;;2.38;;
34984;SDS011;21190;58.750;17.004;2023-04-29T03:55:03;3.75;;;1.75;;
34984;SDS011;21190;58.750;17.004;2023-04-29T03:57:30;4.22;;;1.77;;
34984;SDS011;21190;58.750;17.004;2023-04-29T03:59:57;4.97;;;2.10;;
34984;SDS011;21190;58.750;17.004;2023-04-29T04:02:24;8.02;;;2.05;;
34984;SDS011;21190;58.750;17.004;2023-04-29T04:04:51;4.25;;;1.83;;
34984;SDS011;21190;58.750;17.004;2023-04-29T04:07:20;10.70;;;2.28;;
34984;SDS011;21190;58.750;17.004;2023-04-29T04:09:47;6.97;;;2.55;;
34984;SDS011;21190;58.750;17.004;2023-04-29T04:12:14;5.95;;;1.60;;
34984;SDS011;21190;58.750;17.004;2023-04-29T04:14:41;4.28;;;1.83;;
34984;SDS011;21190;58.750;17.004;2023-04-29T04:17:08;3.15;;;1.80;;
34984;SDS011;21190;58.750;17.004;2023-04-29T04:19:35;9.32;;;2.80;;
34984;SDS011;21190;58.750;17.004;2023-04-29T04:22:02;6.97;;;1.52;;
34984;SDS011;21190;58.750;17.004;2023-04-29T04:24:30;4.53;;;2.53;;
34984;SDS011;21190;58.750;17.004;2023-04-29T04:26:57;3.13;;;1.95;;
34984;SDS011;21190;58.750;17.004;2023-04-29T04:29:23;4.10;;;1.90;;
34984;SDS011;21190;58.750;17.004;2023-04-29T04:31:50;5.00;;;1.73;;
34984;SDS011;21190;58.750;17.004;2023-04-29T04:34:17;6.63;;;1.92;;
34984;SDS011;21190;58.750;17.004;2023-04-29T04:36:45;10.00;;;1.60;;
34984;SDS011;21190;58.750;17.004;2023-04-29T04:39:12;11.45;;;2.13;;
34984;SDS011;21190;58.750;17.004;2023-04-29T04:41:39;4.75;;;2.17;;
34984;SDS011;21190;58.750;17.004;2023-04-29T04:44:06;8.00;;;2.15;;
34984;SDS011;21190;58.750;17.004;2023-04-29T04:46:33;5.18;;;2.10;;
34984;SDS011;21190;58.750;17.004;2023-04-29T04:49:00;5.97;;;1.63;;
34984;SDS011;21190;58.750;17.004;2023-04-29T04:51:27;7.72;;;2.35;;
34984;SDS011;21190;58.750;17.004;2023-04-29T04:53:54;4.93;;;1.70;;
34984;SDS011;21190;58.750;17.004;2023-04-29T04:56:21;2.90;;;1.90;;
34984;SDS011;21190;58.750;17.004;2023-04-29T04:58:48;5.72;;;1.80;;
34984;SDS011;21190;58.750;17.004;2023-04-29T05:01:15;3.10;;;1.92;;
34984;SDS011;21190;58.750;17.004;2023-04-29T05:03:42;4.53;;;2.03;;
34984;SDS011;21190;58.750;17.004;2023-04-29T05:06:09;5.28;;;1.60;;
34984;SDS011;21190;58.750;17.004;2023-04-29T05:08:36;3.85;;;1.65;;
34984;SDS011;21190;58.750;17.004;2023-04-29T05:11:03;8.23;;;1.77;;
34984;SDS011;21190;58.750;17.004;2023-04-29T05:13:31;26.60;;;2.88;;
34984;SDS011;21190;58.750;17.004;2023-04-29T05:16:01;4.68;;;1.67;;
34984;SDS011;21190;58.750;17.004;2023-04-29T05:18:31;4.45;;;1.40;;
34984;SDS011;21190;58.750;17.004;2023-04-29T05:20:58;2.90;;;1.48;;
34984;SDS011;21190;58.750;17.004;2023-04-29T05:23:25;4.95;;;1.60;;
34984;SDS011;21190;58.750;17.004;2023-04-29T05:25:53;3.45;;;1.67;;
34984;SDS011;21190;58.750;17.004;2023-04-29T05:28:20;2.80;;;1.40;;
34984;SDS011;21190;58.750;17.004;2023-04-29T05:30:49;4.47;;;1.58;;
34984;SDS011;21190;58.750;17.004;2023-04-29T05:33:17;7.97;;;1.70;;
34984;SDS011;21190;58.750;17.004;2023-04-29T05:35:44;9.38;;;1.52;;
34984;SDS011;21190;58.750;17.004;2023-04-29T05:38:11;9.45;;;1.65;;
34984;SDS011;21190;58.750;17.004;2023-04-29T05:40:38;4.90;;;1.42;;
34984;SDS011;21190;58.750;17.004;2023-04-29T05:43:05;5.07;;;1.25;;
34984;SDS011;21190;58.750;17.004;2023-04-29T05:45:32;3.83;;;1.15;;
34984;SDS011;21190;58.750;17.004;2023-04-29T05:47:59;5.05;;;0.90;;
34984;SDS011;21190;58.750;17.004;2023-04-29T05:50:26;3.35;;;1.02;;
34984;SDS011;21190;58.750;17.004;2023-04-29T05:52:53;1.65;;;0.93;;
34984;SDS011;21190;58.750;17.004;2023-04-29T05:55:21;1.02;;;0.80;;
34984;SDS011;21190;58.750;17.004;2023-04-29T05:57:49;5.78;;;1.08;;
34984;SDS011;21190;58.750;17.004;2023-04-29T06:00:16;1.83;;;0.95;;
34984;SDS011;21190;58.750;17.004;2023-04-29T06:02:42;4.65;;;1.42;;
34984;SDS011;21190;58.750;17.004;2023-04-29T06:05:24;6.28;;;0.95;;
34984;SDS011;21190;58.750;17.004;2023-04-29T06:07:52;5.22;;;1.00;;
34984;SDS011;21190;58.750;17.004;2023-04-29T06:10:20;3.58;;;0.70;;
34984;SDS011;21190;58.750;17.004;2023-04-29T06:12:46;1.55;;;0.77;;
34984;SDS011;21190;58.750;17.004;2023-04-29T06:15:16;1.05;;;0.75;;
34984;SDS011;21190;58.750;17.004;2023-04-29T06:17:43;1.17;;;0.93;;
34984;SDS011;21190;58.750;17.004;2023-04-29T06:20:10;1.15;;;0.85;;
34984;SDS011;21190;58.750;17.004;2023-04-29T06:22:38;0.95;;;0.80;;
34984;SDS011;21190;58.750;17.004;2023-04-29T06:25:05;2.10;;;0.98;;
34984;SDS011;21190;58.750;17.004;2023-04-29T06:27:32;1.42;;;0.82;;
34984;SDS011;21190;58.750;17.004;2023-04-29T06:29:59;1.60;;;1.13;;
34984;SDS011;21190;58.750;17.004;2023-04-29T06:32:26;2.78;;;1.10;;
34984;SDS011;21190;58.750;17.004;2023-04-29T06:34:53;1.42;;;0.88;;
34984;SDS011;21190;58.750;17.004;2023-04-29T06:37:20;2.30;;;0.90;;
34984;SDS011;21190;58.750;17.004;2023-04-29T06:39:47;5.35;;;0.68;;
34984;SDS011;21190;58.750;17.004;2023-04-29T06:42:13;3.22;;;1.08;;
34984;SDS011;21190;58.750;17.004;2023-04-29T06:44:40;2.50;;;0.85;;
34984;SDS011;21190;58.750;17.004;2023-04-29T06:47:07;2.67;;;0.90;;
34984;SDS011;21190;58.750;17.004;2023-04-29T06:49:35;0.75;;;0.68;;
34984;SDS011;21190;58.750;17.004;2023-04-29T06:52:01;4.40;;;0.82;;
34984;SDS011;21190;58.750;17.004;2023-04-29T06:54:28;5.05;;;1.00;;
34984;SDS011;21190;58.750;17.004;2023-04-29T06:56:55;2.70;;;1.00;;
34984;SDS011;21190;58.750;17.004;2023-04-29T06:59:23;0.80;;;0.80;;
34984;SDS011;21190;58.750;17.004;2023-04-29T07:01:50;1.30;;;0.80;;
34984;SDS011;21190;58.750;17.004;2023-04-29T07:04:17;3.28;;;1.02;;
34984;SDS011;21190;58.750;17.004;2023-04-29T07:06:44;3.42;;;0.85;;
34984;SDS011;21190;58.750;17.004;2023-04-29T07:09:12;1.63;;;0.80;;
34984;SDS011;21190;58.750;17.004;2023-04-29T07:11:40;2.17;;;0.90;;
34984;SDS011;21190;58.750;17.004;2023-04-29T07:14:07;1.50;;;1.40;;
34984;SDS011;21190;58.750;17.004;2023-04-29T07:16:34;3.28;;;1.15;;
34984;SDS011;21190;58.750;17.004;2023-04-29T07:19:01;6.30;;;0.98;;
34984;SDS011;21190;58.750;17.004;2023-04-29T07:21:28;4.78;;;1.38;;
34984;SDS011;21190;58.750;17.004;2023-04-29T07:23:56;2.17;;;0.80;;
34984;SDS011;21190;58.750;17.004;2023-04-29T07:26:26;4.70;;;1.10;;
34984;SDS011;21190;58.750;17.004;2023-04-29T07:28:53;2.95;;;1.25;;
34984;SDS011;21190;58.750;17.004;2023-04-29T07:31:20;5.03;;;1.02;;
34984;SDS011;21190;58.750;17.004;2023-04-29T07:33:47;4.78;;;1.00;;
34984;SDS011;21190;58.750;17.004;2023-04-29T07:36:14;3.10;;;1.70;;
34984;SDS011;21190;58.750;17.004;2023-04-29T07:38:41;3.17;;;1.02;;
34984;SDS011;21190;58.750;17.004;2023-04-29T07:41:08;5.60;;;2.33;;
34984;SDS011;21190;58.750;17.004;2023-04-29T07:43:35;4.63;;;1.30;;
34984;SDS011;21190;58.750;17.004;2023-04-29T07:46:03;6.88;;;1.92;;
34984;SDS011;21190;58.750;17.004;2023-04-29T07:48:30;5.07;;;1.83;;
34984;SDS011;21190;58.750;17.004;2023-04-29T07:50:56;9.15;;;1.85;;
34984;SDS011;21190;58.750;17.004;2023-04-29T07:53:23;4.43;;;1.95;;
34984;SDS011;21190;58.750;17.004;2023-04-29T07:55:51;5.55;;;1.67;;
34984;SDS011;21190;58.750;17.004;2023-04-29T07:58:17;6.18;;;1.50;;
34984;SDS011;21190;58.750;17.004;2023-04-29T08:00:44;2.22;;;1.23;;
34984;SDS011;21190;58.750;17.004;2023-04-29T08:03:12;3.58;;;1.42;;
34984;SDS011;21190;58.750;17.004;2023-04-29T08:05:39;2.40;;;1.50;;
34984;SDS011;21190;58.750;17.004;2023-04-29T08:08:08;4.95;;;1.50;;
34984;SDS011;21190;58.750;17.004;2023-04-29T08:10:36;5.03;;;1.38;;
34984;SDS011;21190;58.750;17.004;2023-04-29T08:13:06;4.00;;;1.77;;
34984;SDS011;21190;58.750;17.004;2023-04-29T08:15:33;2.25;;;1.15;;
34984;SDS011;21190;58.750;17.004;2023-04-29T08:18:00;13.18;;;2.55;;
34984;SDS011;21190;58.750;17.004;2023-04-29T08:20:27;4.80;;;1.20;;
34984;SDS011;21190;58.750;17.004;2023-04-29T08:22:54;4.72;;;1.70;;
34984;SDS011;21190;58.750;17.004;2023-04-29T08:25:23;3.45;;;1.40;;
34984;SDS011;21190;58.750;17.004;2023-04-29T08:27:52;2.45;;;1.05;;
34984;SDS011;21190;58.750;17.004;2023-04-29T08:30:19;8.40;;;1.35;;
34984;SDS011;21190;58.750;17.004;2023-04-29T08:32:46;7.90;;;1.10;;
34984;SDS011;21190;58.750;17.004;2023-04-29T08:35:14;5.75;;;1.48;;
34984;SDS011;21190;58.750;17.004;2023-04-29T08:37:41;8.23;;;2.60;;
34984;SDS011;21190;58.750;17.004;2023-04-29T08:40:08;6.65;;;2.28;;
34984;SDS011;21190;58.750;17.004;2023-04-29T08:42:35;4.97;;;1.73;;
34984;SDS011;21190;58.750;17.004;2023-04-29T08:45:03;7.70;;;2.50;;
34984;SDS011;21190;58.750;17.004;2023-04-29T08:47:31;5.38;;;1.65;;
34984;SDS011;21190;58.750;17.004;2023-04-29T08:50:03;2.28;;;1.40;;
34984;SDS011;21190;58.750;17.004;2023-04-29T08:52:31;8.40;;;1.70;;
34984;SDS011;21190;58.750;17.004;2023-04-29T08:54:58;6.63;;;1.58;;
34984;SDS011;21190;58.750;17.004;2023-04-29T08:57:29;2.15;;;1.30;;
34984;SDS011;21190;58.750;17.004;2023-04-29T09:00:06;3.35;;;1.35;;
34984;SDS011;21190;58.750;17.004;2023-04-29T09:02:48;4.85;;;1.20;;
34984;SDS011;21190;58.750;17.004;2023-04-29T09:05:17;5.25;;;1.67;;
34984;SDS011;21190;58.750;17.004;2023-04-29T09:07:44;3.13;;;1.25;;
34984;SDS011;21190;58.750;17.004;2023-04-29T09:10:12;5.68;;;1.80;;
34984;SDS011;21190;58.750;17.004;2023-04-29T09:12:41;2.28;;;1.20;;
34984;SDS011;21190;58.750;17.004;2023-04-29T09:15:08;6.05;;;1.55;;
34984;SDS011;21190;58.750;17.004;2023-04-29T09:17:39;6.10;;;1.52;;
34984;SDS011;21190;58.750;17.004;2023-04-29T09:22:50;9.25;;;1.20;;
34984;SDS011;21190;58.750;17.004;2023-04-29T09:25:18;7.18;;;1.50;;
34984;SDS011;21190;58.750;17.004;2023-04-29T09:27:46;1.63;;;1.00;;
34984;SDS011;21190;58.750;17.004;2023-04-29T09:30:13;1.98;;;1.33;;
34984;SDS011;21190;58.750;17.004;2023-04-29T09:32:42;3.80;;;1.60;;
34984;SDS011;21190;58.750;17.004;2023-04-29T09:35:23;4.13;;;1.50;;
34984;SDS011;21190;58.750;17.004;2023-04-29T09:37:51;4.65;;;1.40;;
34984;SDS011;21190;58.750;17.004;2023-04-29T09:40:28;9.38;;;1.95;;
34984;SDS011;21190;58.750;17.004;2023-04-29T09:43:15;3.22;;;1.40;;
34984;SDS011;21190;58.750;17.004;2023-04-29T09:45:45;4.85;;;1.52;;
34984;SDS011;21190;58.750;17.004;2023-04-29T09:48:14;3.33;;;1.17;;
34984;SDS011;21190;58.750;17.004;2023-04-29T09:50:42;3.00;;;1.20;;
34984;SDS011;21190;58.750;17.004;2023-04-29T09:53:10;3.70;;;1.23;;
34984;SDS011;21190;58.750;17.004;2023-04-29T09:58:32;8.85;;;1.60;;
34984;SDS011;21190;58.750;17.004;2023-04-29T10:01:03;4.00;;;1.20;;
34984;SDS011;21190;58.750;17.004;2023-04-29T10:03:33;1.52;;;0.95;;
34984;SDS011;21190;58.750;17.004;2023-04-29T10:06:02;6.70;;;1.50;;
34984;SDS011;21190;58.750;17.004;2023-04-29T10:08:31;8.82;;;1.50;;
34984;SDS011;21190;58.750;17.004;2023-04-29T10:10:59;4.97;;;1.75;;
34984;SDS011;21190;58.750;17.004;2023-04-29T10:13:32;1.80;;;1.02;;
34984;SDS011;21190;58.750;17.004;2023-04-29T10:18:53;3.15;;;1.27;;
34984;SDS011;21190;58.750;17.004;2023-04-29T10:21:30;5.00;;;1.88;;
34984;SDS011;21190;58.750;17.004;2023-04-29T10:23:57;7.97;;;1.52;;
34984;SDS011;21190;58.750;17.004;2023-04-29T10:26:27;9.43;;;1.55;;
34984;SDS011;21190;58.750;17.004;2023-04-29T10:28:55;5.43;;;1.00;;
34984;SDS011;21190;58.750;17.004;2023-04-29T10:31:24;9.85;;;3.40;;
34984;SDS011;21190;58.750;17.004;2023-04-29T10:33:56;5.03;;;1.60;;
34984;SDS011;21190;58.750;17.004;2023-04-29T10:36:24;10.13;;;2.50;;
34984;SDS011;21190;58.750;17.004;2023-04-29T10:38:54;3.38;;;1.00;;
34984;SDS011;21190;58.750;17.004;2023-04-29T10:41:29;8.63;;;1.30;;
34984;SDS011;21190;58.750;17.004;2023-04-29T10:44:00;4.68;;;1.48;;
34984;SDS011;21190;58.750;17.004;2023-04-29T10:46:29;5.47;;;1.30;;
34984;SDS011;21190;58.750;17.004;2023-04-29T10:49:00;4.78;;;1.00;;
34984;SDS011;21190;58.750;17.004;2023-04-29T10:56:34;3.45;;;0.95;;
34984;SDS011;21190;58.750;17.004;2023-04-29T11:00:02;5.80;;;1.40;;
34984;SDS011;21190;58.750;17.004;2023-04-29T11:02:02;4.93;;;1.50;;
34984;SDS011;21190;58.750;17.004;2023-04-29T11:04:30;9.43;;;2.40;;
34984;SDS011;21190;58.750;17.004;2023-04-29T11:06:57;4.70;;;1.40;;
34984;SDS011;21190;58.750;17.004;2023-04-29T11:09:26;5.65;;;1.77;;
34984;SDS011;21190;58.750;17.004;2023-04-29T11:11:56;6.28;;;1.85;;
34984;SDS011;21190;58.750;17.004;2023-04-29T11:17:09;5.28;;;1.60;;
34984;SDS011;21190;58.750;17.004;2023-04-29T11:19:39;5.57;;;1.65;;
34984;SDS011;21190;58.750;17.004;2023-04-29T11:27:36;5.47;;;1.80;;
34984;SDS011;21190;58.750;17.004;2023-04-29T11:30:05;7.32;;;1.65;;
34984;SDS011;21190;58.750;17.004;2023-04-29T11:32:34;8.85;;;1.80;;
34984;SDS011;21190;58.750;17.004;2023-04-29T11:35:09;9.48;;;2.08;;
34984;SDS011;21190;58.750;17.004;2023-04-29T11:37:38;7.72;;;2.67;;
34984;SDS011;21190;58.750;17.004;2023-04-29T11:40:06;6.95;;;2.05;;
34984;SDS011;21190;58.750;17.004;2023-04-29T11:42:35;5.88;;;2.20;;
34984;SDS011;21190;58.750;17.004;2023-04-29T11:45:06;9.35;;;2.17;;
34984;SDS011;21190;58.750;17.004;2023-04-29T11:47:33;8.00;;;2.38;;
34984;SDS011;21190;58.750;17.004;2023-04-29T11:50:04;10.55;;;2.30;;
34984;SDS011;21190;58.750;17.004;2023-04-29T11:52:34;6.30;;;2.28;;
34984;SDS011;21190;58.750;17.004;2023-04-29T11:55:03;7.07;;;2.28;;
34984;SDS011;21190;58.750;17.004;2023-04-29T11:57:30;5.20;;;2.53;;
34984;SDS011;21190;58.750;17.004;2023-04-29T11:59:58;7.40;;;2.33;;
34984;SDS011;21190;58.750;17.004;2023-04-29T12:02:28;6.65;;;2.50;;
34984;SDS011;21190;58.750;17.004;2023-04-29T12:04:59;15.20;;;2.63;;
34984;SDS011;21190;58.750;17.004;2023-04-29T12:07:31;6.40;;;2.20;;
34984;SDS011;21190;58.750;17.004;2023-04-29T12:09:58;11.20;;;2.00;;
34984;SDS011;21190;58.750;17.004;2023-04-29T12:12:25;7.10;;;2.30;;
34984;SDS011;21190;58.750;17.004;2023-04-29T12:14:53;6.32;;;2.30;;
34984;SDS011;21190;58.750;17.004;2023-04-29T12:17:21;4.50;;;2.05;;
34984;SDS011;21190;58.750;17.004;2023-04-29T12:19:49;6.55;;;2.25;;
34984;SDS011;21190;58.750;17.004;2023-04-29T12:22:16;9.15;;;1.92;;
34984;SDS011;21190;58.750;17.004;2023-04-29T12:24:45;5.43;;;2.38;;
34984;SDS011;21190;58.750;17.004;2023-04-29T12:27:12;14.48;;;2.78;;
34984;SDS011;21190;58.750;17.004;2023-04-29T12:29:39;6.78;;;2.10;;
34984;SDS011;21190;58.750;17.004;2023-04-29T12:32:06;5.47;;;2.45;;
34984;SDS011;21190;58.750;17.004;2023-04-29T12:34:38;6.80;;;2.25;;
34984;SDS011;21190;58.750;17.004;2023-04-29T12:37:05;13.63;;;2.45;;
34984;SDS011;21190;58.750;17.004;2023-04-29T12:39:32;4.00;;;2.25;;
34984;SDS011;21190;58.750;17.004;2023-04-29T12:42:00;10.38;;;2.20;;
34984;SDS011;21190;58.750;17.004;2023-04-29T12:44:34;7.50;;;2.17;;
34984;SDS011;21190;58.750;17.004;2023-04-29T12:47:09;7.47;;;1.98;;
34984;SDS011;21190;58.750;17.004;2023-04-29T12:49:37;3.22;;;2.17;;
34984;SDS011;21190;58.750;17.004;2023-04-29T12:52:07;6.18;;;2.88;;
34984;SDS011;21190;58.750;17.004;2023-04-29T12:54:36;5.32;;;2.58;;
34984;SDS011;21190;58.750;17.004;2023-04-29T12:57:06;7.57;;;2.75;;
34984;SDS011;21190;58.750;17.004;2023-04-29T12:59:33;8.93;;;2.75;;
34984;SDS011;21190;58.750;17.004;2023-04-29T13:02:01;12.57;;;2.50;;
34984;SDS011;21190;58.750;17.004;2023-04-29T13:04:28;6.30;;;2.20;;
34984;SDS011;21190;58.750;17.004;2023-04-29T13:06:55;7.78;;;3.10;;
34984;SDS011;21190;58.750;17.004;2023-04-29T13:09:26;7.00;;;2.28;;
34984;SDS011;21190;58.750;17.004;2023-04-29T13:11:53;6.63;;;2.10;;
34984;SDS011;21190;58.750;17.004;2023-04-29T13:14:20;13.98;;;2.10;;
34984;SDS011;21190;58.750;17.004;2023-04-29T13:16:47;8.43;;;2.63;;
34984;SDS011;21190;58.750;17.004;2023-04-29T13:19:14;5.85;;;1.92;;
34984;SDS011;21190;58.750;17.004;2023-04-29T13:22:01;5.45;;;1.88;;
34984;SDS011;21190;58.750;17.004;2023-04-29T13:24:28;7.78;;;2.17;;
34984;SDS011;21190;58.750;17.004;2023-04-29T13:26:55;8.45;;;1.83;;
34984;SDS011;21190;58.750;17.004;2023-04-29T13:29:23;6.85;;;2.00;;
34984;SDS011;21190;58.750;17.004;2023-04-29T13:31:51;7.60;;;2.10;;
34984;SDS011;21190;58.750;17.004;2023-04-29T13:34:18;5.18;;;1.77;;
34984;SDS011;21190;58.750;17.004;2023-04-29T13:36:46;7.43;;;1.90;;
34984;SDS011;21190;58.750;17.004;2023-04-29T13:39:13;7.70;;;2.40;;
34984;SDS011;21190;58.750;17.004;2023-04-29T13:41:40;6.82;;;1.80;;
34984;SDS011;21190;58.750;17.004;2023-04-29T13:44:11;7.00;;;2.22;;
34984;SDS011;21190;58.750;17.004;2023-04-29T13:46:41;8.65;;;2.47;;
34984;SDS011;21190;58.750;17.004;2023-04-29T13:49:09;7.88;;;1.92;;
34984;SDS011;21190;58.750;17.004;2023-04-29T13:51:56;9.15;;;2.65;;
34984;SDS011;21190;58.750;17.004;2023-04-29T13:54:26;3.50;;;1.77;;
34984;SDS011;21190;58.750;17.004;2023-04-29T13:57:13;5.65;;;1.88;;
34984;SDS011;21190;58.750;17.004;2023-04-29T14:00:00;6.07;;;1.92;;
34984;SDS011;21190;58.750;17.004;2023-04-29T14:02:47;6.65;;;1.77;;
34984;SDS011;21190;58.750;17.004;2023-04-29T14:05:23;11.80;;;2.17;;
34984;SDS011;21190;58.750;17.004;2023-04-29T14:07:51;10.10;;;2.63;;
34984;SDS011;21190;58.750;17.004;2023-04-29T14:10:18;6.97;;;2.00;;
34984;SDS011;21190;58.750;17.004;2023-04-29T14:12:44;6.82;;;1.75;;
34984;SDS011;21190;58.750;17.004;2023-04-29T14:15:12;7.38;;;1.90;;
34984;SDS011;21190;58.750;17.004;2023-04-29T14:17:40;6.63;;;2.05;;
34984;SDS011;21190;58.750;17.004;2023-04-29T14:20:07;9.98;;;1.80;;
34984;SDS011;21190;58.750;17.004;2023-04-29T14:22:34;9.05;;;2.63;;
34984;SDS011;21190;58.750;17.004;2023-04-29T14:25:01;10.45;;;2.47;;
34984;SDS011;21190;58.750;17.004;2023-04-29T14:27:28;5.50;;;2.20;;
34984;SDS011;21190;58.750;17.004;2023-04-29T14:29:55;7.80;;;2.47;;
34984;SDS011;21190;58.750;17.004;2023-04-29T14:32:22;7.57;;;2.40;;
34984;SDS011;21190;58.750;17.004;2023-04-29T14:34:49;8.68;;;2.42;;
34984;SDS011;21190;58.750;17.004;2023-04-29T14:37:16;8.18;;;2.85;;
34984;SDS011;21190;58.750;17.004;2023-04-29T14:39:43;11.15;;;2.80;;
34984;SDS011;21190;58.750;17.004;2023-04-29T14:42:10;16.75;;;2.53;;
34984;SDS011;21190;58.750;17.004;2023-04-29T14:44:38;5.85;;;2.22;;
34984;SDS011;21190;58.750;17.004;2023-04-29T14:47:05;8.43;;;2.28;;
34984;SDS011;21190;58.750;17.004;2023-04-29T14:49:32;5.78;;;2.38;;
34984;SDS011;21190;58.750;17.004;2023-04-29T14:51:59;5.15;;;2.47;;
34984;SDS011;21190;58.750;17.004;2023-04-29T14:54:25;7.57;;;3.22;;
34984;SDS011;21190;58.750;17.004;2023-04-29T14:56:53;7.00;;;2.97;;
34984;SDS011;21190;58.750;17.004;2023-04-29T14:59:19;6.22;;;2.47;;
34984;SDS011;21190;58.750;17.004;2023-04-29T15:01:46;3.67;;;2.72;;
34984;SDS011;21190;58.750;17.004;2023-04-29T15:04:14;8.38;;;2.90;;
34984;SDS011;21190;58.750;17.004;2023-04-29T15:06:41;5.45;;;3.03;;
34984;SDS011;21190;58.750;17.004;2023-04-29T15:09:08;4.47;;;3.00;;
34984;SDS011;21190;58.750;17.004;2023-04-29T15:11:35;5.97;;;3.67;;
34984;SDS011;21190;58.750;17.004;2023-04-29T15:14:02;7.18;;;2.90;;
34984;SDS011;21190;58.750;17.004;2023-04-29T15:16:29;4.85;;;2.78;;
34984;SDS011;21190;58.750;17.004;2023-04-29T15:18:56;3.50;;;2.53;;